• Join FlightAware (Why Join?)
  • Login
  • US Flag 
01:23PM EDT


 

Airport Tracker/Info


-or-


 

Live Flight TrackerFlight Track Log ✈ SWA3141 ✈ 12-Jul-2012 ✈ KPHX - KPDX

Flight Track Log - Related Links

Times and Time Zones

All times are in EDT time to prevent confusion due to time zone crossing. See the SWA3141 flight status page for this flight to view local times or setup timezone preferences in your user account.

Time Position Orientation Groundspeed Altitude Reporting Facility
EDT Latitude Longitude Course Direction KTS MPH feet Rate Location/Type
12:42AM 33.4333 -112.0333 270° West 159 183 2,300  Level Phoenix TRACON
12:43AM 33.4333 -112.0833 270° West 202 232 3,900 2,280 Climbing Phoenix TRACON
12:44AM 33.4333 -112.1667 348° North 226 260 6,500 2,400 Climbing Phoenix TRACON
12:45AM 33.5000 -112.1833 32° Northeast 286 329 8,700 2,220 Climbing Phoenix TRACON
12:46AM 33.5667 -112.1333 34° Northeast 320 368 11,000 2,400 Climbing Phoenix TRACON
12:47AM 33.6500 -112.0667 35° Northeast 340 391 13,500 2,280 Climbing Phoenix TRACON
12:49AM 33.7800 -111.9572 35° Northeast 366 421 17,500 2,280 Climbing Albuquerque Center
12:50AM 33.8775 -111.8747 35° Northeast 368 423 20,000 2,160 Climbing Albuquerque Center
12:51AM 33.9658 -111.8006 34° Northeast 381 438 21,900 1,740 Climbing Albuquerque Center
12:52AM 34.0647 -111.7208 17° North 396 456 23,600 1,500 Climbing Albuquerque Center
12:53AM 34.1667 -111.6833 17° North 413 475 25,000 1,320 Climbing Albuquerque Center
12:54AM 34.2825 -111.6411 350° North 425 489 26,400 1,200 Climbing Albuquerque Center
12:55AM 34.4033 -111.6672 346° North 434 499 27,500 1,140 Climbing Albuquerque Center
12:56AM 34.5244 -111.7042 346° North 443 510 28,800 1,080 Climbing Albuquerque Center
12:57AM 34.6472 -111.7422 346° North 446 513 29,800 1,080 Climbing Albuquerque Center
12:58AM 34.7789 -111.7822 346° North 452 520 31,100 1,140 Climbing Albuquerque Center
12:59AM 34.9008 -111.8181 346° North 455 524 32,200 1,020 Climbing Albuquerque Center
01:00AM 35.0225 -111.8564 346° North 455 524 33,200 840 Climbing Albuquerque Center
01:01AM 35.1444 -111.8933 347° North 456 525 34,000 480 Climbing Albuquerque Center
01:02AM 35.2153 -111.9136 345° North 453 521 34,000  Level Los Angeles Center
01:03AM 35.3375 -111.9531 346° North 453 521 34,000  Level Los Angeles Center
01:05AM 35.6517 -112.0486 343° North 452 520 34,000  Level Albuquerque Center
01:06AM 35.7022 -112.0675 346° North 453 521 34,000  Level Los Angeles Center
01:07AM 35.8267 -112.1047 345° North 453 521 34,000  Level Los Angeles Center
01:08AM 35.9489 -112.1450 340° North 453 521 34,000  Level Los Angeles Center
01:09AM 36.0697 -112.2006 338° Northwest 458 527 34,000  Level Los Angeles Center
01:10AM 36.1864 -112.2592 340° North 458 527 34,000  Level Los Angeles Center
01:11AM 36.3047 -112.3128 338° Northwest 452 520 34,000  Level Los Angeles Center
01:12AM 36.4214 -112.3717 338° Northwest 452 520 34,100 960 Climbing Los Angeles Center
01:13AM 36.5336 -112.4283 339° North 447 514 36,000 900 Climbing Los Angeles Center
01:14AM 36.6500 -112.4850 338° Northwest 442 509 36,000  Level Los Angeles Center
01:15AM 36.7644 -112.5419 337° Northwest 442 509 36,000  Level Los Angeles Center
01:16AM 36.8681 -112.5969 338° Northwest 442 509 36,000  Level Los Angeles Center
01:17AM 36.9825 -112.6542 338° Northwest 442 509 36,000  Level Los Angeles Center
01:18AM 37.1642 -112.7478 338° Northwest 444 511 36,000  Level Salt Lake Center
01:19AM 37.2800 -112.8075 338° Northwest 442 509 36,000  Level Salt Lake Center
01:20AM 37.3961 -112.8672 338° Northwest 442 509 36,000  Level Salt Lake Center
01:21AM 37.5219 -112.9319 337° Northwest 444 511 36,000  Level Salt Lake Center
01:22AM 37.6378 -112.9931 338° Northwest 449 517 36,000  Level Salt Lake Center
01:23AM 37.7564 -113.0539 323° Northwest 449 517 36,000  Level Salt Lake Center
01:24AM 37.8564 -113.1486 318° Northwest 445 512 36,000  Level Salt Lake Center
01:25AM 37.9483 -113.2539 318° Northwest 441 507 36,000  Level Salt Lake Center
01:26AM 38.0511 -113.3719 317° Northwest 441 507 36,000  Level Salt Lake Center
01:27AM 38.1331 -113.4678 318° Northwest 443 510 36,000  Level Salt Lake Center
01:28AM 38.2267 -113.5744 318° Northwest 445 512 36,000  Level Salt Lake Center
01:29AM 38.3197 -113.6822 317° Northwest 444 511 36,000  Level Salt Lake Center
01:30AM 38.4131 -113.7919 317° Northwest 447 514 36,000  Level Salt Lake Center
01:31AM 38.5069 -113.9025 318° Northwest 450 518 36,000  Level Salt Lake Center
01:33AM 38.6014 -114.0128 318° Northwest 452 520 36,000  Level Salt Lake Center
01:34AM 38.6953 -114.1231 317° Northwest 451 519 36,000  Level Salt Lake Center
01:35AM 38.7886 -114.2336 317° Northwest 451 519 36,000  Level Salt Lake Center
01:36AM 38.8806 -114.3431 317° Northwest 446 513 36,000  Level Salt Lake Center
01:37AM 38.9711 -114.4517 317° Northwest 441 507 36,000  Level Salt Lake Center
01:38AM 39.0617 -114.5606 317° Northwest 439 505 36,000  Level Salt Lake Center
01:39AM 39.1528 -114.6708 316° Northwest 441 507 36,000  Level Salt Lake Center
01:40AM 39.2414 -114.7814 317° Northwest 445 512 36,000  Level Salt Lake Center
01:41AM 39.3425 -114.9039 317° Northwest 446 513 36,000  Level Salt Lake Center
01:42AM 39.4286 -115.0078 319° Northwest 444 511 36,000  Level Salt Lake Center
01:43AM 39.5186 -115.1103 325° Northwest 447 514 36,000  Level Salt Lake Center
01:44AM 39.6322 -115.2133 329° Northwest 457 526 36,000  Level Salt Lake Center
01:45AM 39.7367 -115.2956 328° Northwest 458 527 36,000  Level Salt Lake Center
01:46AM 39.8381 -115.3792 327° Northwest 452 520 36,000  Level Salt Lake Center
01:47AM 39.9572 -115.4794 328° Northwest 455 524 36,000  Level Salt Lake Center
01:48AM 40.0606 -115.5633 328° Northwest 457 526 36,000  Level Salt Lake Center
01:49AM 40.1650 -115.6492 328° Northwest 460 529 36,000  Level Salt Lake Center
01:50AM 40.2864 -115.7497 327° Northwest 463 533 36,000  Level Salt Lake Center
01:51AM 40.3881 -115.8375 327° Northwest 462 532 36,000  Level Salt Lake Center
01:52AM 40.5072 -115.9375 327° Northwest 459 528 36,000  Level Salt Lake Center
01:53AM 40.6119 -116.0256 328° Northwest 462 532 36,000  Level Salt Lake Center
01:54AM 40.7189 -116.1133 327° Northwest 470 541 36,000  Level Salt Lake Center
01:55AM 40.8394 -116.2164 326° Northwest 469 540 36,000  Level Salt Lake Center
01:56AM 40.9406 -116.3058 328° Northwest 464 534 36,000  Level Salt Lake Center
01:57AM 41.0464 -116.3947 327° Northwest 466 536 36,000  Level Salt Lake Center
01:58AM 41.1689 -116.5011 327° Northwest 470 541 36,000  Level Salt Lake Center
01:59AM 41.2711 -116.5908 327° Northwest 465 535 36,000  Level Salt Lake Center
02:00AM 41.3767 -116.6817 327° Northwest 463 533 36,000  Level Salt Lake Center
02:01AM 41.4947 -116.7853 327° Northwest 464 534 36,000  Level Salt Lake Center
02:02AM 41.5978 -116.8758 327° Northwest 464 534 36,000  Level Salt Lake Center
02:03AM 41.7006 -116.9661 328° Northwest 463 533 36,000  Level Salt Lake Center
02:04AM 41.8181 -117.0647 326° Northwest 453 521 36,000  Level Salt Lake Center
02:05AM 41.9197 -117.1556 326° Northwest 454 522 36,000  Level Salt Lake Center
02:06AM 42.0356 -117.2589 326° Northwest 450 518 36,000  Level Salt Lake Center
02:07AM 42.1331 -117.3461 326° Northwest 443 510 36,000  Level Salt Lake Center
02:08AM 42.2311 -117.4356 327° Northwest 444 511 36,000  Level Salt Lake Center
02:09AM 42.3386 -117.5311 326° Northwest 442 509 36,000  Level Salt Lake Center
02:10AM 42.4378 -117.6211 326° Northwest 445 512 36,000  Level Salt Lake Center
02:11AM 42.5544 -117.7264 326° Northwest 448 516 36,000 -840 Level Salt Lake Center
02:12AM 42.6536 -117.8172 326° Northwest 448 516 34,300 -1,020 Descending Salt Lake Center
02:13AM 42.7519 -117.9072 326° Northwest 446 513 34,000 -960 Descending Salt Lake Center
02:14AM 42.8683 -118.0153 327° Northwest 450 518 32,400 -1,020 Descending Salt Lake Center
02:15AM 42.9722 -118.1092 325° Northwest 461 531 32,000 -300 Descending Salt Lake Center
02:16AM 43.0378 -118.1714 326° Northwest 454 522 32,000  Level Seattle Center
02:17AM 43.1383 -118.2650 327° Northwest 454 522 32,000  Level Seattle Center
02:17AM 43.1758 -118.2986 326° Northwest 453 521 32,000  Level Salt Lake Center
02:18AM 43.2794 -118.3947 325° Northwest 451 519 32,000  Level Salt Lake Center
02:19AM 43.3825 -118.4925 325° Northwest 451 519 32,000  Level Salt Lake Center
02:20AM 43.4519 -118.5586 326° Northwest 449 517 32,000  Level Seattle Center
02:21AM 43.5531 -118.6528 325° Northwest 454 522 32,000  Level Seattle Center
02:22AM 43.6517 -118.7467 326° Northwest 451 519 32,000  Level Seattle Center
02:22AM 43.7125 -118.8044 326° Northwest 449 517 32,000  Level Salt Lake Center
02:23AM 43.8164 -118.9022 324° Northwest 450 518 32,000  Level Salt Lake Center
02:24AM 43.8567 -118.9422 326° Northwest 449 517 32,000  Level Seattle Center
02:24AM 43.9194 -119.0006 316° Northwest 451 519 32,000  Level Salt Lake Center
02:25AM 44.0058 -119.1186 312° West 436 502 32,000 -180 Level Salt Lake Center
02:26AM 44.0378 -119.1681 311° West 434 499 31,800 -660 Descending Seattle Center
02:27AM 44.1169 -119.2950 311° West 434 499 31,000 -420 Descending Seattle Center
02:28AM 44.1964 -119.4214 310° West 434 499 31,000  Level Seattle Center
02:29AM 44.2739 -119.5486 310° West 432 497 31,000  Level Seattle Center
02:30AM 44.3506 -119.6761 312° West 429 494 31,000  Level Seattle Center
02:31AM 44.4319 -119.8036 311° West 433 498 31,000  Level Seattle Center
02:32AM 44.5100 -119.9317 311° West 431 496 31,000  Level Seattle Center
02:33AM 44.5883 -120.0606 310° West 431 496 31,000  Level Seattle Center
02:34AM 44.6678 -120.1928 310° West 437 503 31,000  Level Seattle Center
02:35AM 44.7469 -120.3239 310° West 436 502 31,000  Level Seattle Center
02:36AM 44.8258 -120.4547 310° West 436 502 31,000  Level Seattle Center
02:37AM 44.9047 -120.5858 310° West 436 502 31,000  Level Seattle Center
02:38AM 44.9822 -120.7169 310° West 434 499 31,000 -1,440 Level Seattle Center
02:39AM 45.0597 -120.8478 310° West 433 498 28,200 -2,700 Descending Seattle Center
02:40AM 45.1353 -120.9758 310° West 427 491 25,600 -2,580 Descending Seattle Center
02:41AM 45.2075 -121.0981 309° West 411 473 23,100 -2,460 Descending Seattle Center
02:42AM 45.2761 -121.2169 310° West 396 456 20,700 -2,340 Descending Seattle Center
02:43AM 45.3439 -121.3328 310° West 384 442 18,400 -2,340 Descending Seattle Center
02:44AM 45.4083 -121.4442 309° West 371 427 16,100 -2,520 Descending Seattle Center
02:44AM 45.4492 -121.5164 309° West 368 423 14,700 -2,100 Descending Seattle Center
02:45AM 45.4717 -121.5564 278° West 365 420 14,000 -1,920 Descending Seattle Center
02:45AM 45.4769 -121.6092 281° West 348 400 13,200 -2,340 Descending Seattle Center
02:46AM 45.4878 -121.6883 277° West 337 388 11,700 -2,460 Descending Seattle Center
02:46AM 45.4931 -121.7519 280° West 339 390 10,700 -1,320 Descending Seattle Center
02:47AM 45.5008 -121.8172 270° West 331 381 10,400 -600 Descending Seattle Center
02:47AM 45.5006 -121.8708 271° West 317 365 10,100 -1,320 Descending Seattle Center
02:48AM 45.5011 -121.9256 273° West 274 315 9,100 -1,920 Descending Seattle Center
02:48AM 45.5033 -121.9794 271° West 278 320 8,200 -2,040 Descending Seattle Center
02:49AM 45.5042 -122.0389 273° West 274 315 7,100 -1,680 Descending Seattle Center
02:49AM 45.5058 -122.0881 273° West 276 318 6,500 -1,740 Descending Seattle Center
02:50AM 45.5083 -122.1497 269° West 279 321 5,400 -1,800 Descending Seattle Center
02:50AM 45.5078 -122.1939 275° West 274 315 4,700 -1,500 Descending Seattle Center
02:51AM 45.5117 -122.2561 268° West 275 316 3,900 -720 Descending Seattle Center
02:51AM 45.5108 -122.2958 272° West 250 288 4,000 -600 Climbing Seattle Center
02:52AM 45.5122 -122.3444 273° West 236 272 3,300 -1,200 Descending Seattle Center
02:52AM 45.5136 -122.3792 279° West 215 247 2,800 -900 Descending Seattle Center
02:53AM 45.5186 -122.4242 293° West 210 242 2,400 -600 Descending Seattle Center
02:53AM 45.5267 -122.4511 302° West 191 220 2,200 -900 Descending Seattle Center
02:54AM 45.5408 -122.4839 296° West 187 215 1,500 -900 Descending Seattle Center
02:54AM 45.5494 -122.5089 306° West 156 180 1,300 -600 Descending Seattle Center
02:55AM 45.5606 -122.5311 292° West 162 186 900 -720 Descending Seattle Center
02:55AM 45.5669 -122.5536 302° West 129 148 600 -420 Descending Seattle Center
02:56AM 45.5800 -122.5833 302° West 150 173 500 -180 Descending Seattle Center